KPIB/PIB METAR and TAF weather

Enter ICAO airport designator
Station Type Date Time Source
KPIB METAR 2022/06/30 23:56 UTC NOAA

KPIB 302356Z AUTO 18003KT 10SM 28/23 A3007 RMK AO2 SLP180 T02780233 10311 20278 50004


Station Type Date Time Source
KPIB Decoded METAR 2022/06/30 23:56 UTC NOAA

Hattiesburg/Laurel, Hattiesburg-Laurel Regional Airport, MS, United States (KPIB) 31-28N 089-20W
Jun 30, 2022 - 07:56 PM EDT / 2022.06.30 2356 UTC
Wind: from the S (180 degrees) at 3 MPH (3 KT):0
Visibility: 10 mile(s):0
Temperature: 82.0 F (27.8 C)
Dew Point: 73.9 F (23.3 C)
Relative Humidity: 76%
Pressure (altimeter): 30.07 in. Hg (1018 hPa)
Pressure tendency: 0.01 inches (0.4 hPa) higher than three hours ago
ob: KPIB 302356Z AUTO 18003KT 10SM 28/23 A3007 RMK AO2 SLP180 T02780233 10311 20278 50004
cycle: 0

Station Type Date Time Source
KPIB TAF 2022/07/01 00:12 UTC NOAA

TAF
AMD KPIB 010008Z 0100/0124 16005KT P6SM FEW025 SCT100
FM011000 00000KT 6SM BR SCT015 BKN040
FM011400 18006KT P6SM BKN035
FM011800 18006KT P6SM VCSH BKN035

Example: see airport list